createdAt,value
2022-09-21T00:00:26.000Z,97.90
2022-09-21T00:01:26.000Z,98.11
2022-09-21T00:02:26.000Z,98.21
2022-09-21T00:03:26.000Z,98.52
2022-09-21T00:04:26.000Z,98.52
2022-09-21T00:05:26.000Z,98.72
2022-09-21T00:06:26.000Z,98.62
2022-09-21T00:07:26.000Z,98.72
2022-09-21T00:08:26.000Z,98.67
2022-09-21T00:09:26.000Z,98.88
2022-09-21T00:10:26.000Z,98.97
2022-09-21T00:11:26.000Z,98.97
2022-09-21T00:12:26.000Z,99.08
2022-09-21T00:13:26.000Z,99.18
2022-09-21T00:14:26.000Z,99.39
2022-09-21T00:15:26.000Z,99.49
2022-09-21T00:16:26.000Z,99.49
2022-09-21T00:17:26.000Z,99.60
2022-09-21T00:18:26.000Z,99.90
2022-09-21T00:19:26.000Z,99.90
2022-09-21T00:20:26.000Z,99.99
2022-09-21T00:21:26.000Z,99.99
2022-09-21T00:22:26.000Z,99.99
2022-09-21T00:23:26.000Z,99.99
2022-09-21T00:24:26.000Z,99.99
2022-09-21T00:25:26.000Z,99.99
2022-09-21T00:26:26.000Z,99.99
2022-09-21T00:27:26.000Z,99.99
2022-09-21T00:28:26.000Z,99.99
2022-09-21T00:29:26.000Z,99.99
2022-09-21T00:30:26.000Z,99.99
2022-09-21T00:31:26.000Z,99.99
2022-09-21T00:32:25.000Z,99.99
2022-09-21T00:33:25.000Z,99.99
2022-09-21T00:34:25.000Z,99.99
2022-09-21T00:35:25.000Z,99.99
2022-09-21T00:36:25.000Z,99.99
2022-09-21T00:37:25.000Z,99.99
2022-09-21T00:38:25.000Z,99.99
2022-09-21T00:39:25.000Z,99.99
2022-09-21T00:40:25.000Z,99.99
2022-09-21T00:41:25.000Z,99.99
2022-09-21T00:42:25.000Z,99.99
2022-09-21T00:43:25.000Z,99.99
2022-09-21T00:44:25.000Z,99.99
2022-09-21T00:45:25.000Z,99.99
2022-09-21T00:46:25.000Z,99.99
2022-09-21T00:47:25.000Z,99.99
2022-09-21T00:48:25.000Z,99.99
2022-09-21T00:49:25.000Z,99.99
2022-09-21T00:50:25.000Z,99.99
2022-09-21T00:51:25.000Z,99.99
2022-09-21T00:52:25.000Z,99.99
2022-09-21T00:53:25.000Z,99.99
2022-09-21T00:54:25.000Z,99.99
2022-09-21T00:55:25.000Z,99.99
2022-09-21T00:56:25.000Z,99.99
2022-09-21T00:57:25.000Z,99.99
2022-09-21T00:58:25.000Z,99.99
2022-09-21T00:59:25.000Z,99.99
2022-09-21T01:00:25.000Z,99.99
2022-09-21T01:01:25.000Z,99.99
2022-09-21T01:02:25.000Z,99.99
2022-09-21T01:03:25.000Z,99.99
2022-09-21T01:04:25.000Z,99.99
2022-09-21T01:05:25.000Z,99.99
2022-09-21T01:06:25.000Z,99.99
2022-09-21T01:07:25.000Z,99.99
2022-09-21T01:08:25.000Z,99.99
2022-09-21T01:09:25.000Z,99.99
2022-09-21T01:10:25.000Z,99.99
2022-09-21T01:11:25.000Z,99.99
2022-09-21T01:12:25.000Z,99.99
2022-09-21T01:13:25.000Z,99.99
2022-09-21T01:14:25.000Z,99.99
2022-09-21T01:15:25.000Z,99.99
2022-09-21T01:16:25.000Z,99.99
2022-09-21T01:17:25.000Z,99.99
2022-09-21T01:18:25.000Z,99.99
2022-09-21T01:19:25.000Z,99.99
2022-09-21T01:20:25.000Z,99.99
2022-09-21T01:21:25.000Z,99.99
2022-09-21T01:22:25.000Z,99.99
2022-09-21T01:23:25.000Z,99.99
2022-09-21T01:24:25.000Z,99.99
2022-09-21T01:25:25.000Z,99.99
2022-09-21T01:26:25.000Z,99.99
2022-09-21T01:27:25.000Z,99.99
2022-09-21T01:28:25.000Z,99.99
2022-09-21T01:29:25.000Z,99.99
2022-09-21T01:30:25.000Z,99.99
2022-09-21T01:31:25.000Z,99.99
2022-09-21T01:32:25.000Z,99.99
2022-09-21T01:33:25.000Z,99.99
2022-09-21T01:34:25.000Z,99.99
2022-09-21T01:35:25.000Z,99.99
2022-09-21T01:36:25.000Z,99.99
2022-09-21T01:37:25.000Z,99.99
2022-09-21T01:38:25.000Z,99.99
2022-09-21T01:39:25.000Z,99.99
2022-09-21T01:40:25.000Z,99.99
2022-09-21T01:41:25.000Z,99.99
2022-09-21T01:42:25.000Z,99.99
2022-09-21T01:43:25.000Z,99.99
2022-09-21T01:44:25.000Z,99.99
2022-09-21T01:45:24.000Z,99.99
2022-09-21T01:46:24.000Z,99.99
2022-09-21T01:47:24.000Z,99.99
2022-09-21T01:48:24.000Z,99.99
2022-09-21T01:49:24.000Z,99.99
2022-09-21T01:50:24.000Z,99.99
2022-09-21T01:51:24.000Z,99.99
2022-09-21T01:52:24.000Z,99.99
2022-09-21T01:53:24.000Z,99.99
2022-09-21T01:54:24.000Z,99.99
2022-09-21T01:55:24.000Z,99.99
2022-09-21T01:56:24.000Z,99.99
2022-09-21T01:57:24.000Z,99.99
2022-09-21T01:58:24.000Z,99.99
2022-09-21T01:59:24.000Z,99.99
2022-09-21T02:00:24.000Z,99.99
2022-09-21T02:01:24.000Z,99.99
2022-09-21T02:02:24.000Z,99.99
2022-09-21T02:03:24.000Z,99.99
2022-09-21T02:04:24.000Z,99.99
2022-09-21T02:05:24.000Z,99.99
2022-09-21T02:06:24.000Z,99.99
2022-09-21T02:07:24.000Z,99.99
2022-09-21T02:08:24.000Z,99.99
2022-09-21T02:09:24.000Z,99.99
2022-09-21T02:10:24.000Z,99.99
2022-09-21T02:11:24.000Z,99.99
2022-09-21T02:12:24.000Z,99.99
2022-09-21T02:13:24.000Z,99.99
2022-09-21T02:14:24.000Z,99.99
2022-09-21T02:15:24.000Z,99.99
2022-09-21T02:16:24.000Z,99.99
2022-09-21T02:17:24.000Z,99.99
2022-09-21T02:18:24.000Z,99.99
2022-09-21T02:19:24.000Z,99.99
2022-09-21T02:20:24.000Z,99.99
2022-09-21T02:21:24.000Z,99.99
2022-09-21T02:22:24.000Z,99.99
2022-09-21T02:23:24.000Z,99.99
2022-09-21T02:24:24.000Z,99.99
2022-09-21T02:25:24.000Z,99.99
2022-09-21T02:26:24.000Z,99.99
2022-09-21T02:27:24.000Z,99.99
2022-09-21T02:28:24.000Z,99.99
2022-09-21T02:29:24.000Z,99.99
2022-09-21T02:30:24.000Z,99.99
2022-09-21T02:31:24.000Z,99.99
2022-09-21T02:32:24.000Z,99.99
2022-09-21T02:33:24.000Z,99.99
2022-09-21T02:34:24.000Z,99.99
2022-09-21T02:35:24.000Z,99.99
2022-09-21T02:36:24.000Z,99.99
2022-09-21T02:37:24.000Z,99.99
2022-09-21T02:38:24.000Z,99.99
2022-09-21T02:39:24.000Z,99.99
2022-09-21T02:40:24.000Z,99.99
2022-09-21T02:41:24.000Z,99.99
2022-09-21T02:42:24.000Z,99.99
2022-09-21T02:43:24.000Z,99.99
2022-09-21T02:44:24.000Z,99.99
2022-09-21T02:45:24.000Z,99.99
2022-09-21T02:46:24.000Z,99.99
2022-09-21T02:47:24.000Z,99.99
2022-09-21T02:48:24.000Z,99.99
2022-09-21T02:49:24.000Z,99.99
2022-09-21T02:50:24.000Z,99.99
2022-09-21T02:51:24.000Z,99.99
2022-09-21T02:52:24.000Z,99.99
2022-09-21T02:53:24.000Z,99.99
2022-09-21T02:54:24.000Z,99.99
2022-09-21T02:55:24.000Z,99.99
2022-09-21T02:56:24.000Z,99.99
2022-09-21T02:57:24.000Z,99.99
2022-09-21T02:58:23.000Z,99.99
2022-09-21T02:59:23.000Z,99.99
2022-09-21T03:00:23.000Z,99.99
2022-09-21T03:01:23.000Z,99.99
2022-09-21T03:02:23.000Z,99.99
2022-09-21T03:03:23.000Z,99.99
2022-09-21T03:04:23.000Z,99.99
2022-09-21T03:05:23.000Z,99.99
2022-09-21T03:06:23.000Z,99.99
2022-09-21T03:07:23.000Z,99.99
2022-09-21T03:08:23.000Z,99.99
2022-09-21T03:09:23.000Z,99.99
2022-09-21T03:10:23.000Z,99.99
2022-09-21T03:11:23.000Z,99.99
2022-09-21T03:12:23.000Z,99.99
2022-09-21T03:13:23.000Z,99.99
2022-09-21T03:14:23.000Z,99.99
2022-09-21T03:15:23.000Z,99.99
2022-09-21T03:16:23.000Z,99.99
2022-09-21T03:17:23.000Z,99.99
2022-09-21T03:18:23.000Z,99.99
2022-09-21T03:19:23.000Z,99.99
2022-09-21T03:20:23.000Z,99.99
2022-09-21T03:21:23.000Z,99.99
2022-09-21T03:22:23.000Z,99.99
2022-09-21T03:23:23.000Z,99.99
2022-09-21T03:24:23.000Z,99.99
2022-09-21T03:25:23.000Z,99.99
2022-09-21T03:26:23.000Z,99.99
2022-09-21T03:27:23.000Z,99.99
2022-09-21T03:28:23.000Z,99.99
2022-09-21T03:29:23.000Z,99.99
2022-09-21T03:30:23.000Z,99.99
2022-09-21T03:31:23.000Z,99.99
2022-09-21T03:32:23.000Z,99.99
2022-09-21T03:33:23.000Z,99.99
2022-09-21T03:34:23.000Z,99.99
2022-09-21T03:35:23.000Z,99.99
2022-09-21T03:36:23.000Z,99.99
2022-09-21T03:37:23.000Z,99.99
2022-09-21T03:38:23.000Z,99.99
2022-09-21T03:39:23.000Z,99.99
2022-09-21T03:40:23.000Z,99.99
2022-09-21T03:41:23.000Z,99.99
2022-09-21T03:42:23.000Z,99.99
2022-09-21T03:43:23.000Z,99.99
2022-09-21T03:44:23.000Z,99.99
2022-09-21T03:45:23.000Z,99.99
2022-09-21T03:46:23.000Z,99.99
2022-09-21T03:47:23.000Z,99.99
2022-09-21T03:48:23.000Z,99.99
2022-09-21T03:49:23.000Z,99.99
2022-09-21T03:50:23.000Z,99.99
2022-09-21T03:51:23.000Z,99.99
2022-09-21T03:52:23.000Z,99.99
2022-09-21T03:53:23.000Z,99.99
2022-09-21T03:54:23.000Z,99.99
2022-09-21T03:55:23.000Z,99.99
2022-09-21T03:56:23.000Z,99.99
2022-09-21T03:57:23.000Z,99.99
2022-09-21T03:58:23.000Z,99.99
2022-09-21T03:59:23.000Z,99.99
2022-09-21T04:00:23.000Z,99.99
2022-09-21T04:01:23.000Z,99.99
2022-09-21T04:02:23.000Z,99.99
2022-09-21T04:03:23.000Z,99.99
2022-09-21T04:04:23.000Z,99.99
2022-09-21T04:05:23.000Z,99.99
2022-09-21T04:06:23.000Z,99.99
2022-09-21T04:07:23.000Z,99.99
2022-09-21T04:08:23.000Z,99.99
2022-09-21T04:09:23.000Z,99.99
2022-09-21T04:10:23.000Z,99.99
2022-09-21T04:11:23.000Z,99.99
2022-09-21T04:12:22.000Z,99.99
2022-09-21T04:13:22.000Z,99.99
2022-09-21T04:14:22.000Z,99.99
2022-09-21T04:15:22.000Z,99.99
2022-09-21T04:16:22.000Z,99.99
2022-09-21T04:17:22.000Z,99.99
2022-09-21T04:18:22.000Z,99.99
2022-09-21T04:19:22.000Z,99.99
2022-09-21T04:20:22.000Z,99.99
2022-09-21T04:21:22.000Z,99.99
2022-09-21T04:22:22.000Z,99.99
2022-09-21T04:23:22.000Z,99.99
2022-09-21T04:24:22.000Z,99.99
2022-09-21T04:25:22.000Z,99.99
2022-09-21T04:26:22.000Z,99.99
2022-09-21T04:27:22.000Z,99.99
2022-09-21T04:28:22.000Z,99.99
2022-09-21T04:29:22.000Z,99.99
2022-09-21T04:30:22.000Z,99.99
2022-09-21T04:31:22.000Z,99.99
2022-09-21T04:32:22.000Z,99.99
2022-09-21T04:33:22.000Z,99.99
2022-09-21T04:34:22.000Z,99.99
2022-09-21T04:35:22.000Z,99.99
2022-09-21T04:36:22.000Z,99.99
2022-09-21T04:37:22.000Z,99.99
2022-09-21T04:38:22.000Z,99.99
2022-09-21T04:39:22.000Z,99.99
2022-09-21T04:40:22.000Z,99.99
2022-09-21T04:41:22.000Z,99.99
2022-09-21T04:42:22.000Z,99.99
2022-09-21T04:43:22.000Z,99.99
2022-09-21T04:44:22.000Z,99.99
2022-09-21T04:45:22.000Z,99.99
2022-09-21T04:46:22.000Z,99.99
2022-09-21T04:47:22.000Z,99.99
2022-09-21T04:48:22.000Z,99.99
2022-09-21T04:49:22.000Z,99.99
2022-09-21T04:50:22.000Z,99.99
2022-09-21T04:51:22.000Z,99.99
2022-09-21T04:52:22.000Z,99.99
2022-09-21T04:53:22.000Z,99.99
2022-09-21T04:54:22.000Z,99.99
2022-09-21T04:55:22.000Z,99.99
2022-09-21T04:56:22.000Z,99.99
2022-09-21T04:57:22.000Z,99.99
2022-09-21T04:58:22.000Z,99.99
2022-09-21T04:59:22.000Z,99.99
2022-09-21T05:00:22.000Z,99.99
2022-09-21T05:01:22.000Z,99.99
2022-09-21T05:02:22.000Z,99.99
2022-09-21T05:03:22.000Z,99.99
2022-09-21T05:04:22.000Z,99.99
2022-09-21T05:05:22.000Z,99.99
2022-09-21T05:06:22.000Z,99.99
2022-09-21T05:07:22.000Z,99.99
2022-09-21T05:08:22.000Z,99.99
2022-09-21T05:09:22.000Z,99.99
2022-09-21T05:10:22.000Z,99.99
2022-09-21T05:11:22.000Z,99.99
2022-09-21T05:12:22.000Z,99.99
2022-09-21T05:13:22.000Z,99.99
2022-09-21T05:14:22.000Z,99.99
2022-09-21T05:15:22.000Z,99.99
2022-09-21T05:16:22.000Z,99.99
2022-09-21T05:17:22.000Z,99.99
2022-09-21T05:18:22.000Z,99.99
2022-09-21T05:19:22.000Z,99.99
2022-09-21T05:20:22.000Z,99.99
2022-09-21T05:21:22.000Z,99.99
2022-09-21T05:22:22.000Z,99.99
2022-09-21T05:23:22.000Z,99.99
2022-09-21T05:24:22.000Z,99.99
2022-09-21T05:25:22.000Z,99.99
2022-09-21T05:26:21.000Z,99.99
2022-09-21T05:27:21.000Z,99.99
2022-09-21T05:28:21.000Z,99.99
2022-09-21T05:29:21.000Z,99.99
2022-09-21T05:30:21.000Z,99.99
2022-09-21T05:31:21.000Z,99.99
2022-09-21T05:32:21.000Z,99.99
2022-09-21T05:33:21.000Z,99.99
2022-09-21T05:34:21.000Z,99.99
2022-09-21T05:35:21.000Z,99.99
2022-09-21T05:36:21.000Z,99.99
2022-09-21T05:37:21.000Z,99.99
2022-09-21T05:38:21.000Z,99.99
2022-09-21T05:39:21.000Z,99.99
2022-09-21T05:40:21.000Z,99.99
2022-09-21T05:41:21.000Z,99.99
2022-09-21T05:42:21.000Z,99.99
2022-09-21T05:43:21.000Z,99.99
2022-09-21T05:44:21.000Z,99.99
2022-09-21T05:45:21.000Z,99.99
2022-09-21T05:46:21.000Z,99.99
2022-09-21T05:47:21.000Z,99.99
2022-09-21T05:48:21.000Z,99.99
2022-09-21T05:49:21.000Z,99.99
2022-09-21T05:50:21.000Z,99.99
2022-09-21T05:51:21.000Z,99.99
2022-09-21T05:52:21.000Z,99.99
2022-09-21T05:53:21.000Z,99.99
2022-09-21T05:54:21.000Z,99.99
2022-09-21T05:55:21.000Z,99.99
2022-09-21T05:56:21.000Z,99.99
2022-09-21T05:57:21.000Z,99.99
2022-09-21T05:58:21.000Z,99.99
2022-09-21T05:59:21.000Z,99.99
2022-09-21T06:00:21.000Z,99.99
2022-09-21T06:01:21.000Z,99.99
2022-09-21T06:02:21.000Z,99.99
2022-09-21T06:03:21.000Z,99.99
2022-09-21T06:04:21.000Z,99.99
2022-09-21T06:05:21.000Z,99.99
2022-09-21T06:06:21.000Z,99.99
2022-09-21T06:07:21.000Z,99.99
2022-09-21T06:08:21.000Z,99.99
2022-09-21T06:09:21.000Z,99.99
2022-09-21T06:10:21.000Z,99.99
2022-09-21T06:11:21.000Z,99.99
2022-09-21T06:12:21.000Z,99.99
2022-09-21T06:13:21.000Z,99.99
2022-09-21T06:14:21.000Z,99.99
2022-09-21T06:15:21.000Z,99.99
2022-09-21T06:16:21.000Z,99.99
2022-09-21T06:17:21.000Z,99.99
2022-09-21T06:18:21.000Z,99.99
2022-09-21T06:19:21.000Z,99.99
2022-09-21T06:20:21.000Z,99.99
2022-09-21T06:21:21.000Z,99.99
2022-09-21T06:22:21.000Z,99.99
2022-09-21T06:23:21.000Z,99.99
2022-09-21T06:24:21.000Z,99.99
2022-09-21T06:25:21.000Z,99.99
2022-09-21T06:26:21.000Z,99.99
2022-09-21T06:27:21.000Z,99.99
2022-09-21T06:28:21.000Z,99.99
2022-09-21T06:29:21.000Z,99.99
2022-09-21T06:30:21.000Z,99.99
2022-09-21T06:31:21.000Z,99.99
2022-09-21T06:32:21.000Z,99.99
2022-09-21T06:33:21.000Z,99.99
2022-09-21T06:34:21.000Z,99.99
2022-09-21T06:35:21.000Z,99.99
2022-09-21T06:36:21.000Z,99.99
2022-09-21T06:37:21.000Z,99.99
2022-09-21T06:38:21.000Z,99.99
2022-09-21T06:39:20.000Z,99.99
2022-09-21T06:40:20.000Z,99.99
2022-09-21T06:41:20.000Z,99.99
2022-09-21T06:42:20.000Z,99.99
2022-09-21T06:43:20.000Z,99.99
2022-09-21T06:44:20.000Z,99.99
2022-09-21T06:45:20.000Z,99.99
2022-09-21T06:46:20.000Z,99.99
2022-09-21T06:47:20.000Z,99.99
2022-09-21T06:48:20.000Z,99.99
2022-09-21T06:49:20.000Z,99.99
2022-09-21T06:50:20.000Z,99.99
2022-09-21T06:51:20.000Z,99.99
2022-09-21T06:52:20.000Z,99.99
2022-09-21T06:53:20.000Z,99.99
2022-09-21T06:54:20.000Z,99.99
2022-09-21T06:55:20.000Z,99.99
2022-09-21T06:56:20.000Z,99.99
2022-09-21T06:57:20.000Z,99.99
2022-09-21T06:58:20.000Z,99.99
2022-09-21T06:59:20.000Z,99.99
2022-09-21T07:00:20.000Z,99.99
2022-09-21T07:01:20.000Z,99.99
2022-09-21T07:02:20.000Z,99.99
2022-09-21T07:03:20.000Z,99.99
2022-09-21T07:04:20.000Z,99.99
2022-09-21T07:05:20.000Z,99.99
2022-09-21T07:06:20.000Z,99.99
2022-09-21T07:07:20.000Z,99.99
2022-09-21T07:08:20.000Z,99.99
2022-09-21T07:09:20.000Z,99.99
2022-09-21T07:10:20.000Z,99.99
2022-09-21T07:11:20.000Z,99.99
2022-09-21T07:12:20.000Z,99.99
2022-09-21T07:13:20.000Z,99.99
2022-09-21T07:14:20.000Z,99.99
2022-09-21T07:15:20.000Z,99.99
2022-09-21T07:16:20.000Z,99.99
2022-09-21T07:17:20.000Z,99.99
2022-09-21T07:18:20.000Z,99.99
2022-09-21T07:19:20.000Z,99.99
2022-09-21T07:20:20.000Z,99.99
2022-09-21T07:21:20.000Z,99.99
2022-09-21T07:22:20.000Z,99.99
2022-09-21T07:23:20.000Z,99.58
2022-09-21T07:24:20.000Z,99.27
2022-09-21T07:25:20.000Z,99.02
2022-09-21T07:26:20.000Z,98.92
2022-09-21T07:27:20.000Z,98.71
2022-09-21T07:28:20.000Z,98.71
2022-09-21T07:29:20.000Z,98.36
2022-09-21T07:30:20.000Z,98.36
2022-09-21T07:31:20.000Z,98.36
2022-09-21T07:32:20.000Z,98.57
2022-09-21T07:33:20.000Z,98.16
2022-09-21T07:34:20.000Z,98.16
2022-09-21T07:35:20.000Z,98.21
2022-09-21T07:36:20.000Z,97.91
2022-09-21T07:37:20.000Z,97.49
2022-09-21T07:38:20.000Z,97.39
2022-09-21T07:39:20.000Z,97.29
2022-09-21T07:40:20.000Z,97.45
2022-09-21T07:41:20.000Z,97.04
2022-09-21T07:42:20.000Z,96.83
2022-09-21T07:43:20.000Z,96.63
2022-09-21T07:44:20.000Z,96.53
2022-09-21T07:45:20.000Z,96.73
2022-09-21T07:46:20.000Z,96.42
2022-09-21T07:47:20.000Z,96.58
2022-09-21T07:48:20.000Z,96.69
2022-09-21T07:49:20.000Z,96.99
2022-09-21T07:50:20.000Z,96.99
2022-09-21T07:51:20.000Z,96.54
2022-09-21T07:52:19.000Z,96.44
2022-09-21T07:53:19.000Z,96.33
2022-09-21T07:54:19.000Z,96.13
2022-09-21T07:55:19.000Z,95.82
2022-09-21T07:56:19.000Z,95.57
2022-09-21T07:57:19.000Z,95.17
2022-09-21T07:58:19.000Z,95.12
2022-09-21T07:59:19.000Z,94.40
2022-09-21T08:00:19.000Z,94.60
2022-09-21T08:01:19.000Z,94.40
2022-09-21T08:02:19.000Z,93.03
2022-09-21T08:03:19.000Z,91.91
2022-09-21T08:04:19.000Z,92.42
2022-09-21T08:05:19.000Z,91.91
2022-09-21T08:06:19.000Z,92.37
2022-09-21T08:07:19.000Z,92.37
2022-09-21T08:08:19.000Z,91.76
2022-09-21T08:09:19.000Z,91.86
2022-09-21T08:10:19.000Z,91.92
2022-09-21T08:11:19.000Z,91.92
2022-09-21T08:12:19.000Z,91.82
2022-09-21T08:13:19.000Z,91.92
2022-09-21T08:14:19.000Z,90.45
2022-09-21T08:15:19.000Z,89.14
2022-09-21T08:16:19.000Z,88.45
2022-09-21T08:17:19.000Z,85.58
2022-09-21T08:18:19.000Z,82.31
2022-09-21T08:19:19.000Z,79.90
2022-09-21T08:20:19.000Z,78.26
2022-09-21T08:21:19.000Z,74.74
2022-09-21T08:22:19.000Z,72.81
2022-09-21T08:23:19.000Z,71.17
2022-09-21T08:24:19.000Z,70.19
2022-09-21T08:25:19.000Z,67.60
2022-09-21T08:26:19.000Z,66.76
2022-09-21T08:27:19.000Z,66.79
2022-09-21T08:28:19.000Z,66.75
2022-09-21T08:29:19.000Z,67.90
2022-09-21T08:30:19.000Z,68.67
2022-09-21T08:31:19.000Z,70.15
2022-09-21T08:32:19.000Z,71.00
2022-09-21T08:33:19.000Z,71.44
2022-09-21T08:34:19.000Z,72.38
2022-09-21T08:35:19.000Z,73.63
2022-09-21T08:36:19.000Z,75.15
2022-09-21T08:37:19.000Z,76.40
2022-09-21T08:38:19.000Z,75.79
2022-09-21T08:39:19.000Z,75.49
2022-09-21T08:40:19.000Z,76.00
2022-09-21T08:41:19.000Z,74.88
2022-09-21T08:42:19.000Z,76.31
2022-09-21T08:43:19.000Z,76.06
2022-09-21T08:43:19.000Z,76.06
2022-09-21T08:44:19.000Z,75.96
2022-09-21T08:44:19.000Z,75.96
2022-09-21T08:45:19.000Z,74.10
2022-09-21T08:45:19.000Z,74.10
2022-09-21T08:46:19.000Z,73.97
2022-09-21T08:46:19.000Z,73.97
2022-09-21T08:47:19.000Z,74.27
2022-09-21T08:47:19.000Z,74.27
2022-09-21T08:48:19.000Z,73.32
2022-09-21T08:49:19.000Z,73.43
2022-09-21T08:50:19.000Z,73.53
2022-09-21T08:51:19.000Z,73.80
2022-09-21T08:52:19.000Z,71.88
2022-09-21T08:53:19.000Z,71.57
2022-09-21T08:54:19.000Z,71.06
2022-09-21T08:55:19.000Z,71.53
2022-09-21T08:56:19.000Z,70.83
2022-09-21T08:57:19.000Z,71.50
2022-09-21T08:58:19.000Z,71.00
2022-09-21T08:59:19.000Z,69.65
2022-09-21T09:00:19.000Z,69.24
2022-09-21T09:01:19.000Z,69.31
2022-09-21T09:02:19.000Z,69.51
2022-09-21T09:03:19.000Z,68.30
2022-09-21T09:04:19.000Z,68.51
2022-09-21T09:05:18.000Z,68.51
2022-09-21T09:06:18.000Z,69.04
2022-09-21T09:07:18.000Z,69.04
2022-09-21T09:08:18.000Z,69.45
2022-09-21T09:09:18.000Z,69.18
2022-09-21T09:10:18.000Z,69.89
2022-09-21T09:11:18.000Z,70.09
2022-09-21T09:12:18.000Z,69.51
2022-09-21T09:13:18.000Z,70.83
2022-09-21T09:14:18.000Z,70.05
2022-09-21T09:15:18.000Z,71.37
2022-09-21T09:16:18.000Z,71.57
2022-09-21T09:17:18.000Z,71.37
2022-09-21T09:18:18.000Z,71.37
2022-09-21T09:19:18.000Z,71.97
2022-09-21T09:20:18.000Z,72.88
2022-09-21T09:21:18.000Z,73.19
2022-09-21T09:22:18.000Z,72.78
2022-09-21T09:23:18.000Z,73.19
2022-09-21T09:24:18.000Z,71.33
2022-09-21T09:25:18.000Z,70.62
2022-09-21T09:26:18.000Z,71.13
2022-09-21T09:27:18.000Z,71.06
2022-09-21T09:28:18.000Z,71.77
2022-09-21T09:29:18.000Z,72.38
2022-09-21T09:30:18.000Z,71.67
2022-09-21T09:31:18.000Z,71.47
2022-09-21T09:32:18.000Z,71.97
2022-09-21T09:33:18.000Z,72.14
2022-09-21T09:34:18.000Z,71.67
2022-09-21T09:35:18.000Z,70.73
2022-09-21T09:36:18.000Z,70.22
2022-09-21T09:37:18.000Z,70.42
2022-09-21T09:38:18.000Z,71.06
2022-09-21T09:39:18.000Z,70.36
2022-09-21T09:40:18.000Z,71.97
2022-09-21T09:41:18.000Z,72.68
2022-09-21T09:42:18.000Z,73.19
2022-09-21T09:43:18.000Z,72.38
2022-09-21T09:44:18.000Z,72.58
2022-09-21T09:45:18.000Z,71.77
2022-09-21T09:46:18.000Z,71.97
2022-09-21T09:47:18.000Z,71.03
2022-09-21T09:48:18.000Z,72.14
2022-09-21T09:49:18.000Z,72.04
2022-09-21T09:50:18.000Z,71.64
2022-09-21T09:51:18.000Z,71.44
2022-09-21T09:52:18.000Z,71.53
2022-09-21T09:53:18.000Z,71.50
2022-09-21T09:54:18.000Z,72.51
2022-09-21T09:55:18.000Z,70.79
2022-09-21T09:56:18.000Z,71.80
2022-09-21T09:57:18.000Z,72.11
2022-09-21T09:58:18.000Z,72.31
2022-09-21T09:59:18.000Z,71.17
2022-09-21T10:00:18.000Z,71.57
2022-09-21T10:01:18.000Z,69.75
2022-09-21T10:02:18.000Z,70.36
2022-09-21T10:03:18.000Z,71.97
2022-09-21T10:04:18.000Z,70.96
2022-09-21T10:05:18.000Z,71.17
2022-09-21T10:06:18.000Z,71.77
2022-09-21T10:07:18.000Z,71.64
2022-09-21T10:08:18.000Z,69.82
2022-09-21T10:09:18.000Z,69.82
2022-09-21T10:10:18.000Z,72.95
2022-09-21T10:11:18.000Z,72.14
2022-09-21T10:12:18.000Z,72.04
2022-09-21T10:13:18.000Z,70.59
2022-09-21T10:14:18.000Z,69.28
2022-09-21T10:15:18.000Z,70.69
2022-09-21T10:16:18.000Z,70.69
2022-09-21T10:17:17.000Z,69.48
2022-09-21T10:18:17.000Z,71.20
2022-09-21T10:19:17.000Z,70.49
2022-09-21T10:20:17.000Z,70.66
2022-09-21T10:21:17.000Z,72.07
2022-09-21T10:22:17.000Z,71.06
2022-09-21T10:23:17.000Z,71.97
2022-09-21T10:24:17.000Z,70.96
2022-09-21T10:25:17.000Z,70.66
2022-09-21T10:26:17.000Z,69.04
2022-09-21T10:27:17.000Z,71.17
2022-09-21T10:28:17.000Z,69.35
2022-09-21T10:29:17.000Z,69.65
2022-09-21T10:30:17.000Z,70.36
2022-09-21T10:31:17.000Z,68.91
2022-09-21T10:32:17.000Z,68.81
2022-09-21T10:33:17.000Z,71.03
2022-09-21T10:34:17.000Z,70.83
2022-09-21T10:35:17.000Z,71.00
2022-09-21T10:36:17.000Z,68.68
2022-09-21T10:37:17.000Z,68.95
2022-09-21T10:38:17.000Z,64.41
2022-09-21T10:39:17.000Z,65.01
2022-09-21T10:40:17.000Z,67.43
2022-09-21T10:41:17.000Z,66.42
2022-09-21T10:42:17.000Z,65.69
2022-09-21T10:43:17.000Z,65.56
2022-09-21T10:44:17.000Z,63.78
2022-09-21T10:45:17.000Z,65.36
2022-09-21T10:46:17.000Z,65.42
2022-09-21T10:47:17.000Z,66.47
2022-09-21T10:48:17.000Z,65.23
2022-09-21T10:49:17.000Z,63.53
2022-09-21T10:50:17.000Z,63.79
2022-09-21T10:51:17.000Z,61.52
2022-09-21T10:52:17.000Z,61.00
2022-09-21T10:53:17.000Z,56.73
2022-09-21T10:54:17.000Z,57.80
2022-09-21T10:55:17.000Z,57.78
2022-09-21T10:56:17.000Z,59.08
2022-09-21T10:57:17.000Z,57.57
2022-09-21T10:58:17.000Z,57.75
2022-09-21T10:59:17.000Z,57.22
2022-09-21T11:00:17.000Z,55.89
2022-09-21T11:01:17.000Z,54.19
2022-09-21T11:02:17.000Z,54.17
2022-09-21T11:03:17.000Z,52.04
2022-09-21T11:04:17.000Z,55.34
2022-09-21T11:05:17.000Z,53.22
2022-09-21T11:06:17.000Z,54.82
2022-09-21T11:07:17.000Z,54.39
2022-09-21T11:08:17.000Z,52.02
2022-09-21T11:09:17.000Z,51.62
2022-09-21T11:10:17.000Z,52.32
2022-09-21T11:11:17.000Z,52.42
2022-09-21T11:12:17.000Z,51.79
2022-09-21T11:13:17.000Z,49.40
2022-09-21T11:14:17.000Z,52.49
2022-09-21T11:15:17.000Z,53.99
2022-09-21T11:16:17.000Z,51.59
2022-09-21T11:17:17.000Z,51.20
2022-09-21T11:18:17.000Z,50.97
2022-09-21T11:19:17.000Z,49.90
2022-09-21T11:20:17.000Z,49.90
2022-09-21T11:21:17.000Z,51.59
2022-09-21T11:22:17.000Z,48.40
2022-09-21T11:23:17.000Z,48.80
2022-09-21T11:24:17.000Z,50.70
2022-09-21T11:25:17.000Z,51.20
2022-09-21T11:26:17.000Z,47.83
2022-09-21T11:27:17.000Z,49.95
2022-09-21T11:28:17.000Z,48.67
2022-09-21T11:29:16.000Z,48.07
2022-09-21T11:30:16.000Z,49.85
2022-09-21T11:31:16.000Z,50.95
2022-09-21T11:32:16.000Z,50.04
2022-09-21T11:33:16.000Z,49.65
2022-09-21T11:34:16.000Z,50.42
2022-09-21T11:35:16.000Z,48.63
2022-09-21T11:36:16.000Z,50.72
2022-09-21T11:37:16.000Z,49.60
2022-09-21T11:38:16.000Z,48.48
2022-09-21T11:39:16.000Z,47.68
2022-09-21T11:40:16.000Z,47.08
2022-09-21T11:41:16.000Z,45.98
2022-09-21T11:42:16.000Z,46.70
2022-09-21T11:43:16.000Z,49.60
2022-09-21T11:44:16.000Z,48.30
2022-09-21T11:45:16.000Z,50.99
2022-09-21T11:46:16.000Z,51.10
2022-09-21T11:47:16.000Z,49.98
2022-09-21T11:48:16.000Z,48.38
2022-09-21T11:49:16.000Z,47.06
2022-09-21T11:50:16.000Z,46.68
2022-09-21T11:51:16.000Z,47.28
2022-09-21T11:52:16.000Z,46.19
2022-09-21T11:53:16.000Z,47.33
2022-09-21T11:54:16.000Z,47.85
2022-09-21T11:55:16.000Z,48.57
2022-09-21T11:56:16.000Z,51.67
2022-09-21T11:57:16.000Z,49.97
2022-09-21T11:58:16.000Z,49.77
2022-09-21T11:59:16.000Z,50.79
2022-09-21T12:00:16.000Z,52.67
2022-09-21T12:01:16.000Z,50.47
2022-09-21T12:02:16.000Z,51.84
2022-09-21T12:03:16.000Z,50.57
2022-09-21T12:04:16.000Z,49.77
2022-09-21T12:05:16.000Z,48.27
2022-09-21T12:06:16.000Z,50.22
2022-09-21T12:07:16.000Z,51.62
2022-09-21T12:08:16.000Z,51.12
2022-09-21T12:09:16.000Z,48.14
2022-09-21T12:10:16.000Z,46.44
2022-09-21T12:11:16.000Z,48.46
2022-09-21T12:12:16.000Z,49.57
2022-09-21T12:13:16.000Z,50.84
2022-09-21T12:14:16.000Z,49.34
2022-09-21T12:15:16.000Z,49.22
2022-09-21T12:16:16.000Z,50.32
2022-09-21T12:17:16.000Z,48.72
2022-09-21T12:18:16.000Z,47.99
2022-09-21T12:19:16.000Z,47.39
2022-09-21T12:20:16.000Z,47.61
2022-09-21T12:21:16.000Z,46.51
2022-09-21T12:22:16.000Z,48.11
2022-09-21T12:23:16.000Z,49.62
2022-09-21T12:24:16.000Z,49.11
2022-09-21T12:25:16.000Z,50.32
2022-09-21T12:26:16.000Z,48.90
2022-09-21T12:27:16.000Z,47.09
2022-09-21T12:28:16.000Z,46.89
2022-09-21T12:29:16.000Z,48.67
2022-09-21T12:30:16.000Z,45.97
2022-09-21T12:31:16.000Z,47.07
2022-09-21T12:32:16.000Z,46.37
2022-09-21T12:33:16.000Z,50.35
2022-09-21T12:34:16.000Z,49.55
2022-09-21T12:35:16.000Z,46.33
2022-09-21T12:36:16.000Z,47.92
2022-09-21T12:37:16.000Z,47.50
2022-09-21T12:38:15.000Z,47.20
2022-09-21T12:39:15.000Z,46.28
2022-09-21T12:40:15.000Z,47.58
2022-09-21T12:41:15.000Z,48.97
2022-09-21T12:42:15.000Z,50.47
2022-09-21T12:43:15.000Z,49.18
2022-09-21T12:44:15.000Z,50.55
2022-09-21T12:45:15.000Z,49.95
2022-09-21T12:46:15.000Z,49.23
2022-09-21T12:47:15.000Z,49.63